createdAt,value
2023-03-08T00:02:00.194Z,2.30
2023-03-08T00:07:05.725Z,2.10
2023-03-08T00:12:13.574Z,2.13
2023-03-08T00:17:21.904Z,2.10
2023-03-08T00:22:26.888Z,2.50
2023-03-08T00:27:33.856Z,2.10
2023-03-08T00:32:42.750Z,2.30
2023-03-08T00:37:47.820Z,2.23
2023-03-08T00:42:54.848Z,2.47
2023-03-08T00:48:02.586Z,2.03
2023-03-08T00:53:08.917Z,1.97
2023-03-08T00:58:14.900Z,2.30
2023-03-08T01:03:24.553Z,2.00
2023-03-08T01:08:30.462Z,2.10
2023-03-08T01:13:38.547Z,2.30
2023-03-08T01:18:51.208Z,2.40
2023-03-08T01:23:58.111Z,1.93
2023-03-08T01:29:04.217Z,1.90
2023-03-08T01:34:12.776Z,2.30
2023-03-08T01:39:22.726Z,1.83
2023-03-08T01:44:27.732Z,1.83
2023-03-08T01:49:40.416Z,2.13
2023-03-08T01:54:51.404Z,2.20
2023-03-08T02:00:03.184Z,2.60
2023-03-08T02:05:23.626Z,2.23
2023-03-08T02:10:32.648Z,2.27
2023-03-08T02:15:39.300Z,2.00
2023-03-08T02:20:51.869Z,1.77
2023-03-08T02:26:02.308Z,2.63
2023-03-08T02:31:11.249Z,2.20
2023-03-08T02:36:18.521Z,2.33
2023-03-08T02:41:27.410Z,2.30
2023-03-08T02:46:32.400Z,2.83
2023-03-08T02:51:37.448Z,3.00
2023-03-08T02:56:45.106Z,3.40
2023-03-08T03:01:54.422Z,3.60
2023-03-08T03:07:01.659Z,3.30
2023-03-08T03:12:12.093Z,2.87
2023-03-08T03:17:19.006Z,3.37
2023-03-08T03:22:24.139Z,3.67
2023-03-08T03:27:31.820Z,3.37
2023-03-08T03:32:37.351Z,3.80
2023-03-08T03:37:43.631Z,3.83
2023-03-08T03:42:57.338Z,3.93
2023-03-08T03:48:04.940Z,4.47
2023-03-08T03:53:13.160Z,4.50
2023-03-08T03:58:21.591Z,5.00
2023-03-08T04:03:30.984Z,4.10
2023-03-08T04:08:42.216Z,5.33
2023-03-08T04:13:53.297Z,4.57
2023-03-08T04:19:02.558Z,5.60
2023-03-08T04:24:10.250Z,5.90
2023-03-08T04:29:17.977Z,5.07
2023-03-08T04:34:25.629Z,4.83
2023-03-08T04:39:31.814Z,5.67
2023-03-08T04:44:40.984Z,5.60
2023-03-08T04:49:46.319Z,5.70
2023-03-08T04:54:51.697Z,7.70
2023-03-08T05:00:10.552Z,5.93
2023-03-08T05:05:17.881Z,6.37
2023-03-08T05:10:25.695Z,6.50
2023-03-08T05:15:33.765Z,6.30
2023-03-08T05:20:46.076Z,4.93
2023-03-08T05:25:56.343Z,5.83
2023-03-08T05:31:10.480Z,5.73
2023-03-08T05:36:17.263Z,5.83
2023-03-08T05:41:25.013Z,6.27
2023-03-08T05:46:35.169Z,5.93
2023-03-08T05:51:41.796Z,6.07
2023-03-08T05:56:48.012Z,5.90
2023-03-08T06:02:09.073Z,6.37
2023-03-08T06:07:35.325Z,6.07
2023-03-08T06:12:48.700Z,6.10
2023-03-08T06:18:01.140Z,5.90
2023-03-08T06:23:06.639Z,6.20
2023-03-08T06:28:11.729Z,6.47
2023-03-08T06:33:23.897Z,5.77
2023-03-08T06:38:33.555Z,6.40
2023-03-08T06:43:39.891Z,6.33
2023-03-08T06:48:48.253Z,6.47
2023-03-08T06:53:57.985Z,6.97
2023-03-08T06:59:06.091Z,5.50
2023-03-08T07:04:15.174Z,4.60
2023-03-08T07:09:25.189Z,5.13
2023-03-08T07:14:31.402Z,4.83
2023-03-08T07:19:39.051Z,5.67
2023-03-08T07:24:44.007Z,5.40
2023-03-08T07:29:48.907Z,6.37
2023-03-08T07:34:56.703Z,6.53
2023-03-08T07:40:01.937Z,8.87
2023-03-08T07:45:10.889Z,4.33
2023-03-08T07:50:18.784Z,5.03
2023-03-08T07:55:25.640Z,3.90
2023-03-08T08:00:33.457Z,4.73
2023-03-08T08:05:41.435Z,5.27
2023-03-08T08:10:47.407Z,4.57
2023-03-08T08:16:01.995Z,3.63
2023-03-08T08:21:12.774Z,3.77
2023-03-08T08:26:19.963Z,5.40
2023-03-08T08:31:27.275Z,5.77
2023-03-08T08:36:35.946Z,6.23
2023-03-08T08:41:41.023Z,5.27
2023-03-08T08:46:47.693Z,5.80
2023-03-08T08:51:55.550Z,6.80
2023-03-08T08:57:00.614Z,7.17
2023-03-08T09:02:08.837Z,6.50
2023-03-08T09:07:17.386Z,5.90
2023-03-08T09:12:28.538Z,6.67
2023-03-08T09:17:34.551Z,7.07
2023-03-08T09:22:53.281Z,6.93
2023-03-08T09:27:59.611Z,5.73
2023-03-08T09:33:13.568Z,6.63
2023-03-08T09:38:25.068Z,6.87
2023-03-08T09:43:44.221Z,6.33
2023-03-08T09:49:01.141Z,7.20
2023-03-08T09:54:15.562Z,7.13
2023-03-08T09:59:28.053Z,7.30
2023-03-08T10:05:12.225Z,7.73
2023-03-08T10:10:46.335Z,8.07
2023-03-08T10:16:00.124Z,7.13
2023-03-08T10:21:06.022Z,8.10
2023-03-08T10:26:18.718Z,7.40
2023-03-08T10:31:27.393Z,6.90
2023-03-08T10:36:32.506Z,7.07
2023-03-08T10:41:46.121Z,6.90
2023-03-08T10:46:53.548Z,5.97
2023-03-08T10:52:00.871Z,6.97
2023-03-08T10:57:19.817Z,7.77
2023-03-08T11:02:26.416Z,6.67
2023-03-08T11:07:43.497Z,6.30
2023-03-08T11:13:04.020Z,6.57
2023-03-08T11:18:28.148Z,6.30
2023-03-08T11:23:52.366Z,7.80
2023-03-08T11:29:39.853Z,6.73
2023-03-08T11:36:29.560Z,8.00
2023-03-08T11:41:28.332Z,9.73
2023-03-08T11:46:56.889Z,9.47
2023-03-08T11:52:11.074Z,9.53
2023-03-08T11:57:21.079Z,9.40
2023-03-08T12:02:33.210Z,10.43
2023-03-08T12:07:44.565Z,11.83
2023-03-08T12:12:59.124Z,12.17
2023-03-08T12:18:13.223Z,12.87
2023-03-08T12:23:31.050Z,14.10
2023-03-08T12:28:50.676Z,13.47
2023-03-08T12:33:56.264Z,13.27
2023-03-08T12:39:12.415Z,15.43
2023-03-08T12:44:33.671Z,15.17
2023-03-08T12:49:40.910Z,14.93
2023-03-08T12:54:48.323Z,15.40
2023-03-08T13:00:02.202Z,16.57
2023-03-08T13:05:23.150Z,17.10
2023-03-08T13:10:37.770Z,15.40
2023-03-08T13:15:47.200Z,17.67
2023-03-08T13:21:10.006Z,16.53
2023-03-08T13:26:49.384Z,14.83
2023-03-08T13:32:06.277Z,14.30
2023-03-08T13:37:26.180Z,13.53
2023-03-08T13:42:33.611Z,14.20
2023-03-08T13:47:49.924Z,12.30
2023-03-08T13:52:55.030Z,10.83
2023-03-08T13:58:00.595Z,11.30
2023-03-08T14:03:10.713Z,10.63
2023-03-08T14:08:25.047Z,10.10
2023-03-08T14:13:33.818Z,8.40
2023-03-08T14:18:46.317Z,8.43
2023-03-08T14:23:55.806Z,8.70
2023-03-08T14:29:24.675Z,7.87
2023-03-08T14:34:39.431Z,8.17
2023-03-08T14:39:46.655Z,7.47
2023-03-08T14:44:55.465Z,8.83
2023-03-08T14:50:07.355Z,8.00
2023-03-08T14:55:24.440Z,8.27
2023-03-08T15:00:30.524Z,8.57
2023-03-08T15:05:40.037Z,8.97
2023-03-08T15:10:46.109Z,8.60
2023-03-08T15:15:51.518Z,9.13
2023-03-08T15:21:00.021Z,8.03
2023-03-08T15:26:08.129Z,9.03
2023-03-08T15:31:13.077Z,9.50
2023-03-08T15:36:25.037Z,9.97
2023-03-08T15:41:30.347Z,10.53
2023-03-08T15:46:38.514Z,10.27
2023-03-08T15:51:46.519Z,12.77
2023-03-08T15:56:54.956Z,12.30
2023-03-08T16:02:18.128Z,15.00
2023-03-08T16:07:32.398Z,15.30
2023-03-08T16:12:39.733Z,15.67
2023-03-08T16:17:44.990Z,16.77
2023-03-08T16:22:52.930Z,15.87
2023-03-08T16:27:57.929Z,16.97
2023-03-08T16:33:05.284Z,34.23
2023-03-08T16:38:14.399Z,21.23
2023-03-08T16:43:21.106Z,20.53
2023-03-08T16:48:28.610Z,16.87
2023-03-08T16:53:40.357Z,17.33
2023-03-08T16:58:45.465Z,22.60
2023-03-08T17:03:51.318Z,15.27
2023-03-08T17:09:01.385Z,13.67
2023-03-08T17:14:09.177Z,14.77
2023-03-08T17:19:18.048Z,13.20
2023-03-08T17:24:28.164Z,13.70
2023-03-08T17:29:33.369Z,13.03
2023-03-08T17:34:38.394Z,12.63
2023-03-08T17:39:46.101Z,14.63
2023-03-08T17:44:53.347Z,13.60
2023-03-08T17:50:00.719Z,14.57
2023-03-08T17:55:09.278Z,13.80
2023-03-08T18:00:18.085Z,12.30
2023-03-08T18:05:23.061Z,12.60
2023-03-08T18:10:30.888Z,13.67
2023-03-08T18:15:35.906Z,12.53
2023-03-08T18:20:40.887Z,12.20
2023-03-08T18:25:50.226Z,11.67
2023-03-08T18:30:56.618Z,12.73
2023-03-08T18:36:04.010Z,13.47
2023-03-08T18:41:23.383Z,19.37
2023-03-08T18:46:31.882Z,17.07
2023-03-08T18:51:39.054Z,13.80
2023-03-08T18:56:47.911Z,13.47
2023-03-08T19:01:54.269Z,14.07
2023-03-08T19:06:59.269Z,13.47
2023-03-08T19:12:08.634Z,13.90
2023-03-08T19:17:16.073Z,13.77
2023-03-08T19:22:23.813Z,15.60
2023-03-08T19:27:31.844Z,14.43
2023-03-08T19:32:37.000Z,15.03
2023-03-08T19:37:43.590Z,16.13
2023-03-08T19:42:54.343Z,15.97
2023-03-08T19:48:02.188Z,15.90
2023-03-08T19:53:07.770Z,16.43
2023-03-08T19:58:18.782Z,18.13
2023-03-08T20:03:25.497Z,15.97
2023-03-08T20:08:31.717Z,15.03
2023-03-08T20:13:45.684Z,15.00
2023-03-08T20:18:57.544Z,15.50
2023-03-08T20:24:04.361Z,16.87
2023-03-08T20:29:12.698Z,16.33
2023-03-08T20:34:19.806Z,17.13
2023-03-08T20:39:26.681Z,16.63
2023-03-08T20:44:34.849Z,17.17
2023-03-08T20:49:42.261Z,17.37
2023-03-08T20:54:49.929Z,16.63
2023-03-08T21:00:00.783Z,17.50
2023-03-08T21:05:07.786Z,18.23
2023-03-08T21:10:14.456Z,18.03
2023-03-08T21:15:23.706Z,19.80
2023-03-08T21:20:28.786Z,19.00
2023-03-08T21:25:36.941Z,19.00
2023-03-08T21:30:54.003Z,18.27
2023-03-08T21:35:59.811Z,20.30
2023-03-08T21:41:05.793Z,19.13
2023-03-08T21:46:15.537Z,19.47
2023-03-08T21:51:22.145Z,18.90
2023-03-08T21:56:27.317Z,20.53
2023-03-08T22:01:35.817Z,18.93
2023-03-08T22:06:40.938Z,17.93
2023-03-08T22:11:46.743Z,17.97
2023-03-08T22:16:56.598Z,16.70
2023-03-08T22:22:03.048Z,17.60
2023-03-08T22:27:11.035Z,18.67
2023-03-08T22:32:18.989Z,17.80
2023-03-08T22:37:24.076Z,17.60
2023-03-08T22:42:30.597Z,17.53
2023-03-08T22:47:38.247Z,18.20
2023-03-08T22:52:45.606Z,18.53
2023-03-08T22:57:50.568Z,17.97
2023-03-08T23:03:04.196Z,16.30
2023-03-08T23:08:09.623Z,17.43
2023-03-08T23:13:31.149Z,19.10
2023-03-08T23:18:42.882Z,17.07
2023-03-08T23:23:50.687Z,17.63
2023-03-08T23:28:55.786Z,19.93
2023-03-08T23:34:04.092Z,18.00
2023-03-08T23:39:09.471Z,18.37
2023-03-08T23:44:15.301Z,17.57
2023-03-08T23:49:22.952Z,16.90
2023-03-08T23:54:27.997Z,15.23
2023-03-08T23:59:33.563Z,16.63
